Terminal Aerodrome Forecast
Issued by NWS

Home | Current Version | Previous Version | Text Only | Print | Product List | Glossary Off
Versions: 1 2 3 4 5 6 7 8 9 10 11 12 13 14 15 16 17 18 19 20 21 22 23 24 25 26 27 28 29 30 31 32 33

000
FTUS42 KMHX 240900 AAD
TAFOAJ
TAF AMD
KOAJ 240952Z 2410/2506 12005KT 3/4SM -DZ BR OVC003
     FM241500 18010G15KT 3SM -DZ BR OVC004
     FM241800 18015G20KT 4SM BR OVC007
      AMD LTD TO CLD VIS AND WIND=

USA.gov is the U.S. government's official web portal to all federal, state and local government web resources and services.